Terminal Aerodrome Forecast
Issued by NWS Omaha/Valley, NE

Home | Current Version | Previous Version | Graphics & Text | Print | Product List | Glossary On
Versions: 1 2 3 4 5 6 7 8 9 10 11 12 13 14 15 16 17 18 19 20 21 22 23 24 25 26 27 28 29 30 31 32 33 34 35 36 37 38 39 40 41
000
FTUS43 KOAX 211950 AAA
TAFOFK
TAF AMD
KOFK 211950Z 2120/2218 21012KT P6SM BKN150
     FM220000 18010KT P6SM SCT150 BKN250
     FM220600 21010KT P6SM SCT250
     FM221100 27008KT P6SM SCT250=

USA.gov is the U.S. government's official web portal to all federal, state and local government web resources and services.